sensor_id;sensor_type;location;lat;lon;timestamp;P1;durP1;ratioP1;P2;durP2;ratioP2
25381;SDS011;16307;42.896;20.874;2023-04-01T00:00:44;11.38;;;2.80;;
25381;SDS011;16307;42.896;20.874;2023-04-01T00:03:30;11.75;;;2.60;;
25381;SDS011;16307;42.896;20.874;2023-04-01T00:06:19;14.20;;;2.95;;
25381;SDS011;16307;42.896;20.874;2023-04-01T00:09:05;12.07;;;3.30;;
25381;SDS011;16307;42.896;20.874;2023-04-01T00:11:51;18.00;;;3.60;;
25381;SDS011;16307;42.896;20.874;2023-04-01T00:14:37;14.90;;;2.97;;
25381;SDS011;16307;42.896;20.874;2023-04-01T00:17:23;12.18;;;2.35;;
25381;SDS011;16307;42.896;20.874;2023-04-01T00:20:09;15.23;;;2.63;;
25381;SDS011;16307;42.896;20.874;2023-04-01T00:22:55;13.60;;;2.60;;
25381;SDS011;16307;42.896;20.874;2023-04-01T00:25:41;11.57;;;2.80;;
25381;SDS011;16307;42.896;20.874;2023-04-01T00:28:28;12.93;;;3.15;;
25381;SDS011;16307;42.896;20.874;2023-04-01T00:31:14;14.77;;;3.50;;
25381;SDS011;16307;42.896;20.874;2023-04-01T00:34:00;14.00;;;3.25;;
25381;SDS011;16307;42.896;20.874;2023-04-01T00:36:46;18.45;;;4.00;;
25381;SDS011;16307;42.896;20.874;2023-04-01T00:39:32;13.10;;;3.42;;
25381;SDS011;16307;42.896;20.874;2023-04-01T00:42:20;13.23;;;3.40;;
25381;SDS011;16307;42.896;20.874;2023-04-01T00:51:33;20.52;;;3.28;;
25381;SDS011;16307;42.896;20.874;2023-04-01T00:54:21;13.25;;;3.08;;
25381;SDS011;16307;42.896;20.874;2023-04-01T00:57:10;13.45;;;3.40;;
25381;SDS011;16307;42.896;20.874;2023-04-01T01:00:17;13.90;;;2.85;;
25381;SDS011;16307;42.896;20.874;2023-04-01T01:03:04;5.97;;;2.50;;
25381;SDS011;16307;42.896;20.874;2023-04-01T01:24:43;12.85;;;2.45;;
25381;SDS011;16307;42.896;20.874;2023-04-01T01:27:41;17.48;;;2.72;;
25381;SDS011;16307;42.896;20.874;2023-04-01T01:33:51;8.38;;;2.03;;
25381;SDS011;16307;42.896;20.874;2023-04-01T01:36:39;12.80;;;2.75;;
25381;SDS011;16307;42.896;20.874;2023-04-01T01:39:29;14.57;;;2.58;;
25381;SDS011;16307;42.896;20.874;2023-04-01T01:42:16;8.65;;;2.40;;
25381;SDS011;16307;42.896;20.874;2023-04-01T01:45:05;13.20;;;2.65;;
25381;SDS011;16307;42.896;20.874;2023-04-01T01:47:52;13.15;;;2.80;;
25381;SDS011;16307;42.896;20.874;2023-04-01T01:50:38;12.02;;;2.53;;
25381;SDS011;16307;42.896;20.874;2023-04-01T01:53:27;21.33;;;2.92;;
25381;SDS011;16307;42.896;20.874;2023-04-01T01:56:14;13.65;;;2.90;;
25381;SDS011;16307;42.896;20.874;2023-04-01T01:59:03;8.40;;;2.60;;
25381;SDS011;16307;42.896;20.874;2023-04-01T02:01:54;12.50;;;3.05;;
25381;SDS011;16307;42.896;20.874;2023-04-01T02:04:42;14.40;;;3.28;;
25381;SDS011;16307;42.896;20.874;2023-04-01T02:07:31;8.98;;;2.53;;
25381;SDS011;16307;42.896;20.874;2023-04-01T02:10:19;10.90;;;2.55;;
25381;SDS011;16307;42.896;20.874;2023-04-01T02:13:09;11.02;;;2.17;;
25381;SDS011;16307;42.896;20.874;2023-04-01T02:16:03;11.43;;;2.72;;
25381;SDS011;16307;42.896;20.874;2023-04-01T02:18:53;13.68;;;2.80;;
25381;SDS011;16307;42.896;20.874;2023-04-01T02:21:43;11.05;;;2.83;;
25381;SDS011;16307;42.896;20.874;2023-04-01T02:24:30;15.75;;;3.03;;
25381;SDS011;16307;42.896;20.874;2023-04-01T02:27:17;12.10;;;2.60;;
25381;SDS011;16307;42.896;20.874;2023-04-01T02:30:04;11.63;;;2.72;;
25381;SDS011;16307;42.896;20.874;2023-04-01T02:32:50;12.05;;;2.65;;
25381;SDS011;16307;42.896;20.874;2023-04-01T02:35:37;14.30;;;2.95;;
25381;SDS011;16307;42.896;20.874;2023-04-01T02:38:25;14.52;;;3.08;;
25381;SDS011;16307;42.896;20.874;2023-04-01T02:41:11;12.60;;;3.25;;
25381;SDS011;16307;42.896;20.874;2023-04-01T02:43:58;16.30;;;3.10;;
25381;SDS011;16307;42.896;20.874;2023-04-01T02:46:45;12.48;;;2.58;;
25381;SDS011;16307;42.896;20.874;2023-04-01T02:49:30;14.07;;;2.58;;
25381;SDS011;16307;42.896;20.874;2023-04-01T02:52:16;15.65;;;2.83;;
25381;SDS011;16307;42.896;20.874;2023-04-01T02:55:03;9.43;;;2.50;;
25381;SDS011;16307;42.896;20.874;2023-04-01T02:57:50;11.90;;;3.22;;
25381;SDS011;16307;42.896;20.874;2023-04-01T03:00:36;13.73;;;2.88;;
25381;SDS011;16307;42.896;20.874;2023-04-01T03:03:22;16.83;;;2.75;;
25381;SDS011;16307;42.896;20.874;2023-04-01T03:06:09;9.63;;;3.17;;
25381;SDS011;16307;42.896;20.874;2023-04-01T03:08:56;12.82;;;3.25;;
25381;SDS011;16307;42.896;20.874;2023-04-01T03:11:42;15.23;;;3.58;;
25381;SDS011;16307;42.896;20.874;2023-04-01T03:14:28;13.02;;;3.60;;
25381;SDS011;16307;42.896;20.874;2023-04-01T03:17:15;13.20;;;3.70;;
25381;SDS011;16307;42.896;20.874;2023-04-01T03:20:00;21.67;;;5.47;;
25381;SDS011;16307;42.896;20.874;2023-04-01T03:22:48;18.23;;;4.43;;
25381;SDS011;16307;42.896;20.874;2023-04-01T03:25:34;17.33;;;3.65;;
25381;SDS011;16307;42.896;20.874;2023-04-01T03:28:21;12.52;;;3.20;;
25381;SDS011;16307;42.896;20.874;2023-04-01T03:31:07;12.70;;;2.97;;
25381;SDS011;16307;42.896;20.874;2023-04-01T03:34:00;12.23;;;3.20;;
25381;SDS011;16307;42.896;20.874;2023-04-01T03:36:46;19.85;;;4.13;;
25381;SDS011;16307;42.896;20.874;2023-04-01T03:39:32;11.80;;;3.20;;
25381;SDS011;16307;42.896;20.874;2023-04-01T03:42:18;16.85;;;3.38;;
25381;SDS011;16307;42.896;20.874;2023-04-01T03:45:04;18.48;;;3.67;;
25381;SDS011;16307;42.896;20.874;2023-04-01T03:47:50;14.80;;;2.85;;
25381;SDS011;16307;42.896;20.874;2023-04-01T03:50:36;9.02;;;2.60;;
25381;SDS011;16307;42.896;20.874;2023-04-01T03:53:22;14.07;;;2.83;;
25381;SDS011;16307;42.896;20.874;2023-04-01T03:56:10;20.25;;;3.28;;
25381;SDS011;16307;42.896;20.874;2023-04-01T03:58:56;12.73;;;2.78;;
25381;SDS011;16307;42.896;20.874;2023-04-01T04:01:42;12.23;;;2.90;;
25381;SDS011;16307;42.896;20.874;2023-04-01T04:04:28;13.82;;;2.72;;
25381;SDS011;16307;42.896;20.874;2023-04-01T04:07:14;12.48;;;2.45;;
25381;SDS011;16307;42.896;20.874;2023-04-01T04:10:18;10.48;;;2.63;;
25381;SDS011;16307;42.896;20.874;2023-04-01T04:13:05;20.17;;;2.75;;
25381;SDS011;16307;42.896;20.874;2023-04-01T04:15:55;16.13;;;2.42;;
25381;SDS011;16307;42.896;20.874;2023-04-01T04:18:41;12.68;;;2.55;;
25381;SDS011;16307;42.896;20.874;2023-04-01T04:21:27;23.33;;;3.00;;
25381;SDS011;16307;42.896;20.874;2023-04-01T04:24:13;18.67;;;3.15;;
25381;SDS011;16307;42.896;20.874;2023-04-01T04:27:15;18.30;;;3.35;;
25381;SDS011;16307;42.896;20.874;2023-04-01T04:30:11;15.73;;;2.72;;
25381;SDS011;16307;42.896;20.874;2023-04-01T04:32:58;15.43;;;3.10;;
25381;SDS011;16307;42.896;20.874;2023-04-01T04:35:45;13.07;;;2.65;;
25381;SDS011;16307;42.896;20.874;2023-04-01T04:38:30;10.93;;;2.78;;
25381;SDS011;16307;42.896;20.874;2023-04-01T04:41:17;11.82;;;3.00;;
25381;SDS011;16307;42.896;20.874;2023-04-01T04:44:07;20.35;;;3.42;;
25381;SDS011;16307;42.896;20.874;2023-04-01T04:46:53;15.88;;;3.20;;
25381;SDS011;16307;42.896;20.874;2023-04-01T04:49:42;28.27;;;4.90;;
25381;SDS011;16307;42.896;20.874;2023-04-01T04:52:28;11.98;;;2.85;;
25381;SDS011;16307;42.896;20.874;2023-04-01T04:55:14;16.23;;;3.05;;
25381;SDS011;16307;42.896;20.874;2023-04-01T04:58:04;11.63;;;2.85;;
25381;SDS011;16307;42.896;20.874;2023-04-01T05:00:51;18.77;;;3.85;;
25381;SDS011;16307;42.896;20.874;2023-04-01T05:03:42;21.98;;;3.40;;
25381;SDS011;16307;42.896;20.874;2023-04-01T05:06:29;10.60;;;2.60;;
25381;SDS011;16307;42.896;20.874;2023-04-01T05:09:16;10.55;;;2.65;;
25381;SDS011;16307;42.896;20.874;2023-04-01T05:12:02;12.80;;;2.63;;
25381;SDS011;16307;42.896;20.874;2023-04-01T05:15:08;14.68;;;3.28;;
25381;SDS011;16307;42.896;20.874;2023-04-01T05:17:55;13.45;;;2.83;;
25381;SDS011;16307;42.896;20.874;2023-04-01T05:20:46;14.68;;;3.22;;
25381;SDS011;16307;42.896;20.874;2023-04-01T05:23:34;16.95;;;3.80;;
25381;SDS011;16307;42.896;20.874;2023-04-01T05:26:19;25.80;;;3.47;;
25381;SDS011;16307;42.896;20.874;2023-04-01T05:29:05;18.60;;;3.25;;
25381;SDS011;16307;42.896;20.874;2023-04-01T05:31:52;12.38;;;3.03;;
25381;SDS011;16307;42.896;20.874;2023-04-01T05:34:38;20.80;;;3.53;;
25381;SDS011;16307;42.896;20.874;2023-04-01T05:37:24;17.67;;;3.75;;
25381;SDS011;16307;42.896;20.874;2023-04-01T05:40:10;17.33;;;4.45;;
25381;SDS011;16307;42.896;20.874;2023-04-01T05:42:56;15.88;;;3.92;;
25381;SDS011;16307;42.896;20.874;2023-04-01T05:45:42;11.82;;;3.15;;
25381;SDS011;16307;42.896;20.874;2023-04-01T05:48:34;17.58;;;4.75;;
25381;SDS011;16307;42.896;20.874;2023-04-01T05:51:21;14.48;;;3.97;;
25381;SDS011;16307;42.896;20.874;2023-04-01T05:54:07;16.63;;;4.28;;
25381;SDS011;16307;42.896;20.874;2023-04-01T05:56:53;19.60;;;4.95;;
25381;SDS011;16307;42.896;20.874;2023-04-01T05:59:39;45.83;;;5.10;;
25381;SDS011;16307;42.896;20.874;2023-04-01T06:02:25;21.20;;;4.45;;
25381;SDS011;16307;42.896;20.874;2023-04-01T06:05:20;21.55;;;3.78;;
25381;SDS011;16307;42.896;20.874;2023-04-01T06:08:12;15.13;;;4.07;;
25381;SDS011;16307;42.896;20.874;2023-04-01T06:21:21;15.18;;;2.72;;
25381;SDS011;16307;42.896;20.874;2023-04-01T06:24:27;16.73;;;4.05;;
25381;SDS011;16307;42.896;20.874;2023-04-01T06:30:43;13.00;;;3.33;;
25381;SDS011;16307;42.896;20.874;2023-04-01T06:33:47;17.63;;;3.53;;
25381;SDS011;16307;42.896;20.874;2023-04-01T06:42:42;16.88;;;3.67;;
25381;SDS011;16307;42.896;20.874;2023-04-01T06:46:19;13.40;;;3.28;;
25381;SDS011;16307;42.896;20.874;2023-04-01T06:53:13;12.23;;;3.50;;
25381;SDS011;16307;42.896;20.874;2023-04-01T06:56:30;17.80;;;4.07;;
25381;SDS011;16307;42.896;20.874;2023-04-01T06:59:26;21.02;;;4.90;;
25381;SDS011;16307;42.896;20.874;2023-04-01T07:05:11;22.58;;;5.18;;
25381;SDS011;16307;42.896;20.874;2023-04-01T07:08:01;18.85;;;4.97;;
25381;SDS011;16307;42.896;20.874;2023-04-01T07:14:20;15.00;;;3.78;;
25381;SDS011;16307;42.896;20.874;2023-04-01T07:17:20;15.30;;;3.80;;
25381;SDS011;16307;42.896;20.874;2023-04-01T07:20:30;19.55;;;4.65;;
25381;SDS011;16307;42.896;20.874;2023-04-01T07:23:22;17.52;;;4.78;;
25381;SDS011;16307;42.896;20.874;2023-04-01T07:26:24;19.08;;;4.05;;
25381;SDS011;16307;42.896;20.874;2023-04-01T07:29:26;17.10;;;4.05;;
25381;SDS011;16307;42.896;20.874;2023-04-01T07:35:17;20.70;;;4.38;;
25381;SDS011;16307;42.896;20.874;2023-04-01T07:38:54;26.65;;;5.68;;
25381;SDS011;16307;42.896;20.874;2023-04-01T07:56:26;18.63;;;5.10;;
25381;SDS011;16307;42.896;20.874;2023-04-01T08:06:22;19.40;;;5.22;;
25381;SDS011;16307;42.896;20.874;2023-04-01T08:09:27;19.67;;;5.68;;
25381;SDS011;16307;42.896;20.874;2023-04-01T08:22:33;17.52;;;4.50;;
25381;SDS011;16307;42.896;20.874;2023-04-01T08:25:40;17.40;;;4.78;;
25381;SDS011;16307;42.896;20.874;2023-04-01T08:31:39;27.58;;;5.40;;
25381;SDS011;16307;42.896;20.874;2023-04-01T08:34:34;13.35;;;4.22;;
25381;SDS011;16307;42.896;20.874;2023-04-01T08:37:28;22.52;;;5.28;;
25381;SDS011;16307;42.896;20.874;2023-04-01T08:53:36;10.40;;;3.15;;
25381;SDS011;16307;42.896;20.874;2023-04-01T09:06:17;7.70;;;3.03;;
25381;SDS011;16307;42.896;20.874;2023-04-01T09:41:30;14.18;;;6.90;;
25381;SDS011;16307;42.896;20.874;2023-04-01T09:45:31;7.65;;;3.65;;
25381;SDS011;16307;42.896;20.874;2023-04-01T09:50:49;9.85;;;4.70;;
25381;SDS011;16307;42.896;20.874;2023-04-01T09:57:09;9.32;;;3.53;;
25381;SDS011;16307;42.896;20.874;2023-04-01T10:57:50;7.57;;;2.90;;
25381;SDS011;16307;42.896;20.874;2023-04-01T11:33:18;5.80;;;2.25;;
25381;SDS011;16307;42.896;20.874;2023-04-01T11:43:11;5.82;;;2.42;;
25381;SDS011;16307;42.896;20.874;2023-04-01T11:56:32;7.38;;;2.22;;
25381;SDS011;16307;42.896;20.874;2023-04-01T12:03:16;7.85;;;2.20;;
25381;SDS011;16307;42.896;20.874;2023-04-01T12:15:16;4.72;;;2.47;;
25381;SDS011;16307;42.896;20.874;2023-04-01T12:24:56;5.95;;;3.40;;
25381;SDS011;16307;42.896;20.874;2023-04-01T12:28:29;15.13;;;7.05;;
25381;SDS011;16307;42.896;20.874;2023-04-01T12:31:42;11.93;;;4.47;;
25381;SDS011;16307;42.896;20.874;2023-04-01T12:34:53;9.20;;;3.75;;
25381;SDS011;16307;42.896;20.874;2023-04-01T12:59:38;13.35;;;4.88;;
25381;SDS011;16307;42.896;20.874;2023-04-01T13:11:38;3.95;;;1.23;;
25381;SDS011;16307;42.896;20.874;2023-04-01T13:14:54;7.68;;;1.10;;
25381;SDS011;16307;42.896;20.874;2023-04-01T13:21:21;2.67;;;0.70;;
25381;SDS011;16307;42.896;20.874;2023-04-01T13:27:17;1.70;;;0.85;;
25381;SDS011;16307;42.896;20.874;2023-04-01T13:30:29;2.03;;;0.80;;
25381;SDS011;16307;42.896;20.874;2023-04-01T13:36:35;2.78;;;1.20;;
25381;SDS011;16307;42.896;20.874;2023-04-01T13:45:24;3.28;;;1.20;;
25381;SDS011;16307;42.896;20.874;2023-04-01T13:48:26;3.13;;;1.30;;
25381;SDS011;16307;42.896;20.874;2023-04-01T13:55:10;1.25;;;0.90;;
25381;SDS011;16307;42.896;20.874;2023-04-01T14:10:18;0.90;;;0.75;;
25381;SDS011;16307;42.896;20.874;2023-04-01T14:31:34;1.40;;;0.70;;
25381;SDS011;16307;42.896;20.874;2023-04-01T14:49:21;2.25;;;0.70;;
25381;SDS011;16307;42.896;20.874;2023-04-01T14:52:30;1.55;;;0.90;;
25381;SDS011;16307;42.896;20.874;2023-04-01T14:58:26;1.25;;;0.70;;
25381;SDS011;16307;42.896;20.874;2023-04-01T15:01:37;0.60;;;0.60;;
25381;SDS011;16307;42.896;20.874;2023-04-01T15:26:09;1.08;;;0.85;;
25381;SDS011;16307;42.896;20.874;2023-04-01T15:32:03;1.35;;;0.90;;
25381;SDS011;16307;42.896;20.874;2023-04-01T15:44:24;3.60;;;0.60;;
25381;SDS011;16307;42.896;20.874;2023-04-01T16:19:31;0.60;;;0.60;;
25381;SDS011;16307;42.896;20.874;2023-04-01T16:22:40;2.03;;;0.70;;
25381;SDS011;16307;42.896;20.874;2023-04-01T16:25:32;2.10;;;0.50;;
25381;SDS011;16307;42.896;20.874;2023-04-01T16:28:57;0.50;;;0.50;;
25381;SDS011;16307;42.896;20.874;2023-04-01T16:31:51;1.05;;;0.50;;
25381;SDS011;16307;42.896;20.874;2023-04-01T16:44:19;0.93;;;0.50;;
25381;SDS011;16307;42.896;20.874;2023-04-01T16:47:08;1.17;;;0.60;;
25381;SDS011;16307;42.896;20.874;2023-04-01T16:50:00;3.72;;;0.82;;
25381;SDS011;16307;42.896;20.874;2023-04-01T16:58:43;1.13;;;0.60;;
25381;SDS011;16307;42.896;20.874;2023-04-01T17:01:49;3.08;;;0.95;;
25381;SDS011;16307;42.896;20.874;2023-04-01T17:04:47;12.18;;;5.28;;
25381;SDS011;16307;42.896;20.874;2023-04-01T17:07:37;8.10;;;3.80;;
25381;SDS011;16307;42.896;20.874;2023-04-01T17:10:50;4.35;;;2.63;;
25381;SDS011;16307;42.896;20.874;2023-04-01T17:17:36;2.97;;;1.10;;
25381;SDS011;16307;42.896;20.874;2023-04-01T17:20:19;2.67;;;1.63;;
25381;SDS011;16307;42.896;20.874;2023-04-01T17:39:24;1.13;;;0.93;;
25381;SDS011;16307;42.896;20.874;2023-04-01T17:42:09;3.72;;;1.40;;
25381;SDS011;16307;42.896;20.874;2023-04-01T17:57:46;1.63;;;1.27;;
25381;SDS011;16307;42.896;20.874;2023-04-01T18:25:02;6.55;;;2.17;;
25381;SDS011;16307;42.896;20.874;2023-04-01T18:28:19;5.07;;;2.25;;
25381;SDS011;16307;42.896;20.874;2023-04-01T18:31:19;4.50;;;1.98;;
25381;SDS011;16307;42.896;20.874;2023-04-01T18:34:14;5.97;;;2.83;;
25381;SDS011;16307;42.896;20.874;2023-04-01T18:37:17;5.65;;;2.28;;
25381;SDS011;16307;42.896;20.874;2023-04-01T18:40:20;7.13;;;2.15;;
25381;SDS011;16307;42.896;20.874;2023-04-01T18:46:29;4.32;;;2.20;;
25381;SDS011;16307;42.896;20.874;2023-04-01T18:52:40;5.30;;;2.35;;
25381;SDS011;16307;42.896;20.874;2023-04-01T18:55:52;7.55;;;3.22;;
25381;SDS011;16307;42.896;20.874;2023-04-01T18:58:52;4.15;;;2.00;;
25381;SDS011;16307;42.896;20.874;2023-04-01T19:04:36;5.50;;;3.17;;
25381;SDS011;16307;42.896;20.874;2023-04-01T19:07:32;7.97;;;3.03;;
25381;SDS011;16307;42.896;20.874;2023-04-01T19:19:41;7.57;;;3.92;;
25381;SDS011;16307;42.896;20.874;2023-04-01T19:25:40;7.78;;;3.00;;
25381;SDS011;16307;42.896;20.874;2023-04-01T19:29:03;9.18;;;5.53;;
25381;SDS011;16307;42.896;20.874;2023-04-01T19:51:28;7.10;;;3.40;;
25381;SDS011;16307;42.896;20.874;2023-04-01T20:06:21;6.15;;;2.90;;
25381;SDS011;16307;42.896;20.874;2023-04-01T20:12:13;4.60;;;2.85;;
25381;SDS011;16307;42.896;20.874;2023-04-01T20:18:51;9.75;;;3.30;;
25381;SDS011;16307;42.896;20.874;2023-04-01T20:21:45;3.85;;;2.65;;
25381;SDS011;16307;42.896;20.874;2023-04-01T20:24:37;4.28;;;2.80;;
25381;SDS011;16307;42.896;20.874;2023-04-01T20:27:30;3.72;;;2.42;;
25381;SDS011;16307;42.896;20.874;2023-04-01T20:39:27;3.58;;;2.17;;
25381;SDS011;16307;42.896;20.874;2023-04-01T20:45:26;5.13;;;2.70;;
25381;SDS011;16307;42.896;20.874;2023-04-01T20:51:31;4.05;;;2.55;;
25381;SDS011;16307;42.896;20.874;2023-04-01T21:06:18;15.48;;;7.10;;
25381;SDS011;16307;42.896;20.874;2023-04-01T21:09:09;16.02;;;7.28;;
25381;SDS011;16307;42.896;20.874;2023-04-01T21:26:57;11.93;;;4.10;;
25381;SDS011;16307;42.896;20.874;2023-04-01T21:33:20;7.80;;;3.10;;
25381;SDS011;16307;42.896;20.874;2023-04-01T21:36:32;5.57;;;2.95;;
25381;SDS011;16307;42.896;20.874;2023-04-01T21:42:42;4.13;;;2.63;;
25381;SDS011;16307;42.896;20.874;2023-04-01T21:54:50;5.88;;;2.50;;
25381;SDS011;16307;42.896;20.874;2023-04-01T22:01:42;2.75;;;2.08;;
25381;SDS011;16307;42.896;20.874;2023-04-01T22:07:50;11.18;;;2.97;;
25381;SDS011;16307;42.896;20.874;2023-04-01T22:10:58;5.32;;;2.28;;
25381;SDS011;16307;42.896;20.874;2023-04-01T22:14:26;7.18;;;3.20;;
25381;SDS011;16307;42.896;20.874;2023-04-01T22:17:42;7.05;;;3.33;;
25381;SDS011;16307;42.896;20.874;2023-04-01T22:20:51;7.07;;;3.72;;
25381;SDS011;16307;42.896;20.874;2023-04-01T22:27:05;9.73;;;3.92;;
25381;SDS011;16307;42.896;20.874;2023-04-01T22:59:42;5.90;;;2.28;;
25381;SDS011;16307;42.896;20.874;2023-04-01T23:02:33;6.40;;;2.85;;
25381;SDS011;16307;42.896;20.874;2023-04-01T23:05:22;5.75;;;2.53;;
25381;SDS011;16307;42.896;20.874;2023-04-01T23:11:14;4.35;;;2.80;;
25381;SDS011;16307;42.896;20.874;2023-04-01T23:16:52;2.63;;;1.83;;
25381;SDS011;16307;42.896;20.874;2023-04-01T23:25:45;5.22;;;2.10;;
25381;SDS011;16307;42.896;20.874;2023-04-01T23:31:56;2.38;;;1.75;;
25381;SDS011;16307;42.896;20.874;2023-04-01T23:34:46;3.65;;;2.05;;
25381;SDS011;16307;42.896;20.874;2023-04-01T23:37:35;3.13;;;2.17;;
25381;SDS011;16307;42.896;20.874;2023-04-01T23:40:20;3.05;;;2.13;;
25381;SDS011;16307;42.896;20.874;2023-04-01T23:43:41;3.55;;;2.00;;
25381;SDS011;16307;42.896;20.874;2023-04-01T23:46:24;3.08;;;2.20;;
25381;SDS011;16307;42.896;20.874;2023-04-01T23:49:16;3.22;;;2.00;;
25381;SDS011;16307;42.896;20.874;2023-04-01T23:54:59;2.92;;;1.92;;
